KEWR/EWR METAR and TAF weather

Enter ICAO airport designator
Station Type Date Time Source
KEWR METAR 2022/12/10 01:51 UTC NOAA

KEWR 100151Z 01011KT 10SM CLR 03/M09 A3029 RMK AO2 SLP256 T00331094


Station Type Date Time Source
KEWR Decoded METAR 2022/12/10 01:51 UTC NOAA

NEWARK INTERNATIONAL AIRPORT, NJ, United States (KEWR) 40-41N 74-10W 7M
Dec 09, 2022 - 08:51 PM EST / 2022.12.10 0151 UTC
Wind: from the N (010 degrees) at 13 MPH (11 KT):0
Visibility: 10 mile(s):0
Sky conditions: clear
Temperature: 37.9 F (3.3 C)
Dew Point: 15.1 F (-9.4 C)
Relative Humidity: 38%
Pressure (altimeter): 30.29 in. Hg (1025 hPa)
ob: KEWR 100151Z 01011KT 10SM CLR 03/M09 A3029 RMK AO2 SLP256 T00331094
cycle: 2

Station Type Date Time Source
KEWR TAF 2022/12/09 22:18 UTC NOAA

TAF
AMD KEWR 092216Z 0922/1024 01011KT P6SM SKC
FM100300 02009KT P6SM SKC
FM101500 04009KT P6SM FEW250
FM101800 06009KT P6SM SCT035

Example: see airport list